Time;durP1;ratioP1;P1;durP2;ratioP2;P2;SDS_P1;SDS_P2;PMS_P1;PMS_P2;Temp;Humidity;BMP_temperature;BMP_pressure;BME280_temperature;BME280_humidity;BME280_pressure;Samples;Min_cycle;Max_cycle;Signal;HPM_P1;HPM_P2
2022/01/06 00:01:33;;;;;;;;;11.00;9.50;;;;;15.77;51.76;97259.44;6318646;22;102209;-80
2022/01/06 00:04:01;;;;;;;;;10.75;8.25;;;;;15.74;51.77;97270.88;6321950;22;102486;-80
2022/01/06 00:06:29;;;;;;;;;8.50;7.00;;;;;15.71;51.55;97265.97;6319651;22;102103;-80
2022/01/06 00:08:59;;;;;;;;;9.25;7.50;;;;;15.69;51.84;97265.41;6318274;22;103967;-80
2022/01/06 00:11:26;;;;;;;;;10.75;10.25;;;;;15.67;51.50;97264.84;6321096;22;102442;-80
2022/01/06 00:14:03;;;;;;;;;9.75;7.50;;;;;15.66;51.33;97267.84;6317111;22;102072;-80
2022/01/06 00:24:24;;;;;;;;;8.50;7.75;;;;;15.62;52.01;97246.56;6314926;22;102521;-80
2022/01/06 00:26:51;;;;;;;;;5.75;5.50;;;;;15.63;51.77;97250.13;6319772;22;102417;-80
2022/01/06 00:29:18;;;;;;;;;8.25;7.00;;;;;15.60;51.71;97245.19;6320182;22;104059;-80
2022/01/06 00:31:45;;;;;;;;;9.00;7.25;;;;;15.57;51.92;97251.19;6315971;22;103542;-80
2022/01/06 00:34:13;;;;;;;;;10.00;9.00;;;;;15.57;51.86;97253.91;6319979;22;102396;-80
2022/01/06 00:36:43;;;;;;;;;7.75;7.25;;;;;15.57;51.42;97248.47;6322024;22;102155;-79
2022/01/06 00:39:10;;;;;;;;;6.00;5.25;;;;;15.55;51.87;97265.06;6290339;22;108567;-80
2022/01/06 00:41:38;;;;;;;;;7.00;6.50;;;;;15.55;51.56;97267.78;6319474;22;102370;-80
2022/01/06 00:44:06;;;;;;;;;5.75;5.75;;;;;15.52;52.14;97267.50;6315654;22;102169;-80
2022/01/06 00:46:33;;;;;;;;;8.50;7.75;;;;;15.49;51.93;97277.00;6319105;22;102486;-80
2022/01/06 00:49:00;;;;;;;;;9.50;7.00;;;;;15.46;51.84;97263.91;6314835;22;104043;-80
2022/01/06 00:51:27;;;;;;;;;8.50;6.00;;;;;15.46;51.76;97263.09;6319482;22;102663;-80
2022/01/06 00:53:54;;;;;;;;;9.00;7.00;;;;;15.46;51.43;97263.91;6316570;22;102376;-80
2022/01/06 00:56:21;;;;;;;;;8.25;7.00;;;;;15.44;51.99;97266.09;6321000;22;102613;-80
2022/01/06 00:58:48;;;;;;;;;4.00;4.00;;;;;15.44;51.64;97271.53;6321107;22;103970;-80
2022/01/06 01:01:15;;;;;;;;;6.75;6.00;;;;;15.45;51.56;97283.22;6319277;22;102368;-80
2022/01/06 01:03:43;;;;;;;;;5.75;5.00;;;;;15.43;51.88;97275.34;6302630;22;102617;-80
2022/01/06 01:06:10;;;;;;;;;8.00;7.00;;;;;15.42;51.51;97270.97;6312471;22;102152;-80
2022/01/06 01:08:38;;;;;;;;;6.50;6.25;;;;;15.43;51.73;97279.97;6316952;22;104228;-80
2022/01/06 01:11:05;;;;;;;;;5.75;5.75;;;;;15.41;51.80;97285.66;6320115;22;102107;-80
2022/01/06 01:13:37;;;;;;;;;5.75;5.75;;;;;15.40;51.43;97289.47;6318606;22;102562;-80
2022/01/06 01:16:26;;;;;;;;;5.00;5.00;;;;;15.38;51.63;97278.03;6292131;22;102255;-80
2022/01/06 01:18:56;;;;;;;;;5.00;5.00;;;;;15.40;51.47;97280.50;6317747;22;110077;-80
2022/01/06 01:21:27;;;;;;;;;6.50;5.75;;;;;15.39;51.47;97289.75;6320802;22;101936;-80
2022/01/06 01:23:58;;;;;;;;;7.75;6.00;;;;;15.36;51.69;97273.91;6318061;22;102136;-80
2022/01/06 01:26:26;;;;;;;;;5.00;4.75;;;;;15.35;51.51;97280.47;6317133;22;102184;-80
2022/01/06 01:28:53;;;;;;;;;9.25;5.75;;;;;15.32;51.47;97275.53;6291916;22;104150;-80
2022/01/06 01:31:31;;;;;;;;;6.00;5.25;;;;;15.29;51.20;97274.16;6317691;22;102190;-80
2022/01/06 01:34:02;;;;;;;;;8.50;5.75;;;;;15.27;51.17;97278.22;6319348;22;103103;-80
2022/01/06 01:36:29;;;;;;;;;4.25;4.25;;;;;15.27;51.54;97280.94;6319056;22;102577;-80
2022/01/06 01:38:56;;;;;;;;;6.25;5.75;;;;;15.28;51.88;97277.13;6315975;22;104051;-80
2022/01/06 01:41:23;;;;;;;;;6.00;5.00;;;;;15.28;51.58;97271.69;6314523;22;102401;-80
2022/01/06 01:43:53;;;;;;;;;6.50;5.00;;;;;15.29;51.65;97267.91;6319263;22;102546;-80
2022/01/06 01:46:28;;;;;;;;;4.50;4.25;;;;;15.28;51.49;97263.53;6294176;22;102494;-80
2022/01/06 01:49:17;;;;;;;;;4.50;4.00;;;;;15.26;51.78;97257.53;6312961;22;104053;-80
2022/01/06 01:51:44;;;;;;;;;7.75;6.00;;;;;15.25;51.59;97272.22;6285821;22;102349;-80
2022/01/06 01:54:11;;;;;;;;;6.00;4.00;;;;;15.23;51.84;97268.94;6284182;22;102159;-80
2022/01/06 01:56:38;;;;;;;;;4.75;4.00;;;;;15.22;51.68;97280.94;6291182;22;102172;-80
2022/01/06 01:59:05;;;;;;;;;6.00;4.25;;;;;15.21;51.48;97280.13;6284449;22;103948;-80
2022/01/06 02:01:32;;;;;;;;;4.75;4.25;;;;;15.20;51.64;97283.91;6285341;22;102454;-80
2022/01/06 02:04:00;;;;;;;;;4.75;4.00;;;;;15.18;51.45;97289.59;6275620;22;102038;-80
2022/01/06 02:06:27;;;;;;;;;4.00;4.00;;;;;15.16;51.75;97299.13;6284195;22;102530;-80
2022/01/06 02:08:54;;;;;;;;;4.00;3.75;;;;;15.15;51.69;97301.03;6274426;22;103647;-80
2022/01/06 02:11:21;;;;;;;;;4.00;4.00;;;;;15.13;51.40;97302.38;6265721;22;102341;-80
2022/01/06 02:13:50;;;;;;;;;4.00;4.00;;;;;15.12;51.24;97298.84;6285642;22;102382;-80
2022/01/06 02:16:25;;;;;;;;;5.50;4.75;;;;;15.12;51.32;97303.47;6288201;22;102361;-80
2022/01/06 02:18:52;;;;;;;;;7.00;5.50;;;;;15.12;51.72;97307.00;6277167;22;109128;-80
2022/01/06 02:21:20;;;;;;;;;3.00;3.00;;;;;15.13;51.32;97294.19;6289135;22;102431;-80
2022/01/06 02:23:47;;;;;;;;;4.00;3.25;;;;;15.12;51.45;97301.56;6279706;22;102424;-80
2022/01/06 02:26:14;;;;;;;;;3.00;3.00;;;;;15.13;51.22;97313.25;6290119;22;102229;-80
2022/01/06 02:28:42;;;;;;;;;2.75;2.75;;;;;15.12;51.60;97317.91;6282042;22;104030;-80
2022/01/06 02:31:09;;;;;;;;;4.75;4.00;;;;;15.12;51.30;97319.81;6276720;22;101964;-80
2022/01/06 02:33:37;;;;;;;;;2.00;2.00;;;;;15.09;51.54;97312.97;6286315;22;102512;-80
2022/01/06 02:36:04;;;;;;;;;3.00;3.00;;;;;15.09;51.56;97314.84;6287937;22;102578;-80
2022/01/06 02:38:32;;;;;;;;;3.75;3.00;;;;;15.05;51.79;97317.28;6281698;22;104268;-80
2022/01/06 02:40:59;;;;;;;;;3.25;3.00;;;;;15.05;51.04;97316.47;6286056;22;108097;-80
2022/01/06 02:43:26;;;;;;;;;3.75;3.00;;;;;15.05;51.49;97320.00;6282158;22;102541;-79
2022/01/06 02:45:54;;;;;;;;;2.50;2.50;;;;;15.04;51.51;97321.09;6285710;22;102556;-79
2022/01/06 02:48:21;;;;;;;;;3.50;3.50;;;;;15.02;51.18;97311.56;6287325;22;103974;-80
2022/01/06 02:50:49;;;;;;;;;3.25;3.00;;;;;15.00;51.36;97314.53;6308283;22;101911;-80
2022/01/06 02:53:17;;;;;;;;;3.00;2.50;;;;;15.02;51.27;97312.38;6319603;22;102074;-80
2022/01/06 02:55:47;;;;;;;;;3.00;2.75;;;;;15.01;51.13;97313.44;6319582;22;102430;-79
2022/01/06 02:58:34;;;;;;;;;3.25;2.50;;;;;15.00;51.31;97328.13;6316959;22;109751;-79
2022/01/06 03:01:01;;;;;;;;;3.00;2.00;;;;;14.99;51.40;97323.78;6315334;22;102569;-79
2022/01/06 03:03:28;;;;;;;;;2.25;2.25;;;;;14.99;51.29;97318.34;6317151;22;102126;-79
2022/01/06 03:05:55;;;;;;;;;3.00;2.00;;;;;15.00;50.84;97317.25;6319929;22;101982;-80
2022/01/06 03:08:23;;;;;;;;;3.25;3.00;;;;;14.99;51.28;97318.34;6319612;22;103989;-80
2022/01/06 03:10:50;;;;;;;;;4.00;3.00;;;;;14.98;51.36;97313.97;6319836;22;102519;-80
2022/01/06 03:13:17;;;;;;;;;2.75;2.75;;;;;14.98;51.25;97315.88;6319816;22;102159;-80
2022/01/06 03:15:44;;;;;;;;;3.00;3.00;;;;;14.97;51.26;97316.94;6291207;22;102564;-80
2022/01/06 03:18:12;;;;;;;;;3.25;3.00;;;;;14.94;51.19;97312.88;6320347;22;104175;-79
2022/01/06 03:20:39;;;;;;;;;3.00;3.00;;;;;14.94;51.71;97321.03;6322617;22;102295;-80
2022/01/06 03:23:06;;;;;;;;;3.25;3.25;;;;;14.93;51.62;97327.53;6315613;22;102181;-80
2022/01/06 03:25:33;;;;;;;;;3.50;3.50;;;;;14.92;51.58;97322.34;6322561;22;102129;-79
2022/01/06 03:28:00;;;;;;;;;4.25;4.00;;;;;14.90;51.27;97322.63;6317573;22;103988;-79
2022/01/06 03:30:27;;;;;;;;;3.00;3.00;;;;;14.89;51.44;97331.03;6314484;22;102032;-80
2022/01/06 03:32:54;;;;;;;;;3.00;2.50;;;;;14.88;51.43;97322.06;6317428;22;101888;-80
2022/01/06 03:35:22;;;;;;;;;4.75;3.25;;;;;14.85;51.25;97332.66;6321284;22;102681;-80
2022/01/06 03:37:50;;;;;;;;;2.00;2.00;;;;;14.86;51.22;97332.38;6319140;22;108710;-80
2022/01/06 03:40:17;;;;;;;;;2.50;2.00;;;;;14.86;51.15;97326.94;6321921;22;102098;-80
2022/01/06 03:42:44;;;;;;;;;3.25;3.00;;;;;14.88;51.13;97327.50;6319202;22;101986;-80
2022/01/06 03:45:14;;;;;;;;;2.50;1.50;;;;;14.89;51.07;97331.88;6321300;22;102155;-79
2022/01/06 03:47:41;;;;;;;;;1.50;1.50;;;;;14.87;51.42;97339.47;6292042;22;103991;-80
2022/01/06 03:50:10;;;;;;;;;2.00;2.00;;;;;14.88;51.47;97332.94;6323329;22;102135;-80
2022/01/06 03:52:37;;;;;;;;;2.00;2.00;;;;;14.88;51.27;97334.84;6322975;22;102478;-80
2022/01/06 03:55:09;;;;;;;;;4.00;2.00;;;;;14.87;51.43;97336.75;6319334;22;102302;-79
2022/01/06 03:57:36;;;;;;;;;3.75;2.75;;;;;14.86;51.64;97343.25;6320089;22;103928;-80
2022/01/06 04:00:08;;;;;;;;;3.00;2.00;;;;;14.85;51.14;97338.09;6323689;22;102718;-80
2022/01/06 04:02:36;;;;;;;;;2.75;2.75;;;;;14.83;51.37;97338.34;6320444;22;102493;-80
2022/01/06 04:05:04;;;;;;;;;2.00;1.25;;;;;14.83;51.50;97349.22;6320539;22;102555;-80
2022/01/06 04:07:32;;;;;;;;;2.75;2.75;;;;;14.81;51.35;97348.69;6319562;22;104091;-80
2022/01/06 04:10:00;;;;;;;;;1.00;1.00;;;;;14.80;51.22;97347.03;6315390;22;101950;-79
2022/01/06 04:12:27;;;;;;;;;1.25;1.25;;;;;14.78;51.01;97341.00;6319832;22;102570;-79
2022/01/06 04:14:54;;;;;;;;;2.00;2.00;;;;;14.78;50.79;97353.78;6293993;22;102117;-79
2022/01/06 04:17:21;;;;;;;;;2.00;1.25;;;;;14.77;51.24;97352.97;6321923;22;104104;-79
2022/01/06 04:19:48;;;;;;;;;2.00;2.00;;;;;14.77;51.23;97352.97;6323583;22;102247;-79
2022/01/06 04:22:16;;;;;;;;;1.00;1.00;;;;;14.79;51.20;97356.28;6320352;22;102309;-79
2022/01/06 04:24:44;;;;;;;;;2.75;1.25;;;;;14.79;50.83;97353.53;6322363;22;102285;-80
2022/01/06 04:27:12;;;;;;;;;2.00;2.00;;;;;14.80;50.67;97357.09;6321348;22;104022;-79
2022/01/06 04:29:40;;;;;;;;;3.00;2.50;;;;;14.78;51.38;97367.41;6318467;22;102522;-79
2022/01/06 04:32:07;;;;;;;;;2.00;2.00;;;;;14.78;51.08;97360.06;6319679;22;103831;-79
2022/01/06 04:34:34;;;;;;;;;2.50;2.00;;;;;14.78;51.50;97354.63;6323680;22;102062;-79
2022/01/06 04:37:02;;;;;;;;;3.00;3.00;;;;;14.78;50.84;97351.91;6321178;22;104162;-79
2022/01/06 04:39:29;;;;;;;;;1.00;1.00;;;;;14.77;50.97;97363.84;6321858;22;102281;-79
2022/01/06 04:41:56;;;;;;;;;2.75;2.00;;;;;14.78;51.30;97367.41;6318857;22;102296;-80
2022/01/06 04:44:23;;;;;;;;;2.00;2.00;;;;;14.77;51.41;97368.50;6323853;22;102252;-80
2022/01/06 04:46:50;;;;;;;;;2.00;2.00;;;;;14.76;51.11;97366.84;6320256;22;104112;-80
2022/01/06 04:49:17;;;;;;;;;3.00;1.00;;;;;14.73;51.09;97371.72;6322742;22;102710;-80
2022/01/06 04:51:44;;;;;;;;;1.00;1.00;;;;;14.73;51.18;97373.63;6320665;22;102280;-80
2022/01/06 04:54:11;;;;;;;;;2.00;2.00;;;;;14.71;51.32;97370.34;6322511;22;102497;-80
2022/01/06 04:56:38;;;;;;;;;1.00;1.00;;;;;14.68;50.93;97368.13;6322761;22;104287;-80
2022/01/06 04:59:06;;;;;;;;;2.00;1.50;;;;;14.68;51.14;97370.84;6320614;22;102081;-80
2022/01/06 05:01:33;;;;;;;;;1.25;1.25;;;;;14.69;50.89;97372.50;6320552;22;102351;-80
2022/01/06 05:04:00;;;;;;;;;1.50;1.25;;;;;14.69;51.04;97380.66;6321789;22;102452;-80
2022/01/06 05:06:27;;;;;;;;;2.50;1.25;;;;;14.69;51.40;97383.38;6319791;22;107375;-80
2022/01/06 05:08:54;;;;;;;;;2.25;1.00;;;;;14.69;51.28;97378.75;6322939;22;102244;-80
2022/01/06 05:11:21;;;;;;;;;2.00;2.00;;;;;14.70;51.20;97374.13;6321591;22;102589;-80
2022/01/06 05:13:48;;;;;;;;;2.75;1.75;;;;;14.71;51.33;97370.34;6321390;22;102561;-80
2022/01/06 05:16:15;;;;;;;;;2.00;1.00;;;;;14.70;51.00;97380.41;6318055;22;103987;-80
2022/01/06 05:18:42;;;;;;;;;2.00;2.00;;;;;14.69;51.31;97377.94;6321236;22;102202;-80
2022/01/06 05:21:09;;;;;;;;;1.00;1.00;;;;;14.67;51.07;97382.81;6317110;22;102127;-80
2022/01/06 05:23:38;;;;;;;;;2.75;2.00;;;;;14.67;50.85;97388.28;6294640;22;102107;-80
2022/01/06 05:26:05;;;;;;;;;1.75;1.00;;;;;14.66;51.16;97384.72;6322014;22;103967;-80
2022/01/06 05:28:32;;;;;;;;;1.25;1.00;;;;;14.67;51.03;97391.00;6322141;22;104076;-80
2022/01/06 05:30:59;;;;;;;;;1.00;1.00;;;;;14.64;51.53;97380.59;6320002;22;102402;-79
2022/01/06 05:33:26;;;;;;;;;2.00;2.00;;;;;14.62;50.82;97394.47;6322143;22;102491;-80
2022/01/06 05:35:53;;;;;;;;;1.00;1.00;;;;;14.61;50.82;97397.44;6319057;22;103718;-79
2022/01/06 05:38:20;;;;;;;;;2.00;2.00;;;;;14.59;50.74;97394.19;6322712;22;102173;-80
2022/01/06 05:40:47;;;;;;;;;1.00;1.00;;;;;14.60;51.09;97395.78;6320797;22;102543;-80
2022/01/06 05:43:14;;;;;;;;;1.75;1.75;;;;;14.62;51.12;97404.53;6317917;22;102145;-80
2022/01/06 05:45:42;;;;;;;;;2.00;2.00;;;;;14.62;50.91;97399.09;6320471;22;104029;-80
2022/01/06 05:48:09;;;;;;;;;1.50;1.50;;;;;14.60;51.22;97402.06;6314407;22;102344;-80
2022/01/06 05:50:36;;;;;;;;;1.50;1.00;;;;;14.62;51.02;97401.81;6316945;22;102255;-79
2022/01/06 05:53:03;;;;;;;;;4.00;2.00;;;;;14.60;50.79;97395.78;6316660;22;102518;-79
2022/01/06 05:55:30;;;;;;;;;3.00;2.00;;;;;14.60;51.02;97403.94;6318015;22;104125;-80
2022/01/06 05:57:57;;;;;;;;;1.75;1.25;;;;;14.60;51.11;97396.63;6316204;22;102225;-80
2022/01/06 06:00:24;;;;;;;;;1.00;1.00;;;;;14.61;50.96;97413.75;6320451;22;102369;-79
2022/01/06 06:02:51;;;;;;;;;0.50;0.50;;;;;14.60;50.65;97404.78;6323033;22;102400;-80
2022/01/06 06:05:18;;;;;;;;;1.50;1.00;;;;;14.60;51.01;97412.13;6317552;22;109409;-79
2022/01/06 06:07:45;;;;;;;;;1.00;1.00;;;;;14.59;51.06;97414.00;6321892;22;102298;-80
2022/01/06 06:10:12;;;;;;;;;1.50;1.00;;;;;14.56;51.26;97409.09;6320396;22;102379;-79
2022/01/06 06:12:39;;;;;;;;;0.75;0.75;;;;;14.56;51.17;97417.25;6320608;22;102260;-80
2022/01/06 06:15:10;;;;;;;;;1.00;1.00;;;;;14.54;51.25;97415.88;6322324;22;104077;-80
2022/01/06 06:17:37;;;;;;;;;2.00;0.50;;;;;14.53;50.70;97425.94;6323295;22;102146;-80
2022/01/06 06:20:04;;;;;;;;;2.00;1.00;;;;;14.51;50.88;97422.63;6317584;22;102358;-80
2022/01/06 06:22:31;;;;;;;;;2.50;2.00;;;;;14.50;50.96;97429.13;6325935;22;102585;-80
2022/01/06 06:24:58;;;;;;;;;2.00;2.00;;;;;14.52;50.96;97437.06;6322565;22;104036;-80
2022/01/06 06:27:29;;;;;;;;;2.00;2.00;;;;;14.51;50.99;97436.22;6295595;22;101940;-80
2022/01/06 06:29:56;;;;;;;;;1.00;0.50;;;;;14.53;51.07;97449.59;6321924;22;102027;-79
2022/01/06 06:32:25;;;;;;;;;1.00;1.00;;;;;14.52;51.17;97454.19;6322327;22;102249;-79
2022/01/06 06:34:52;;;;;;;;;2.00;1.50;;;;;14.52;50.87;97456.91;6265825;22;103983;-80
2022/01/06 06:37:19;;;;;;;;;1.00;1.00;;;;;14.51;50.82;97463.44;6323652;22;102172;-79
2022/01/06 06:39:47;;;;;;;;;2.00;1.00;;;;;14.53;50.67;97471.34;6319827;22;102212;-80
2022/01/06 06:42:14;;;;;;;;;2.00;1.75;;;;;14.53;50.72;97466.72;6322938;22;104188;-79
2022/01/06 06:44:41;;;;;;;;;1.00;1.00;;;;;14.52;50.93;97475.13;6321737;22;103959;-79
2022/01/06 06:47:08;;;;;;;;;1.75;1.75;;;;;14.53;50.86;97471.34;6321140;22;102558;-80
2022/01/06 06:49:36;;;;;;;;;1.00;1.00;;;;;14.54;50.72;97478.44;6318409;22;102176;-79
2022/01/06 06:52:04;;;;;;;;;2.00;1.25;;;;;14.51;50.71;97473.50;6321883;22;102176;-80
2022/01/06 06:54:31;;;;;;;;;3.00;1.00;;;;;14.49;50.72;97479.19;6317097;22;104162;-80
2022/01/06 06:56:58;;;;;;;;;1.25;1.00;;;;;14.47;51.07;97483.22;6319197;22;102465;-79
2022/01/06 06:59:25;;;;;;;;;1.00;1.00;;;;;14.47;51.36;97489.50;6318499;22;101971;-80
2022/01/06 07:01:52;;;;;;;;;1.00;1.00;;;;;14.46;50.99;97481.59;6324429;22;102205;-77
2022/01/06 07:04:20;;;;;;;;;1.50;1.00;;;;;14.45;52.07;97480.78;6318203;22;104126;-79
2022/01/06 07:07:07;;;;;;;;;1.00;1.00;;;;;14.50;52.00;97488.19;6313485;22;102696;-79
2022/01/06 07:09:34;;;;;;;;;1.00;1.00;;;;;14.50;51.39;97483.53;6316451;22;102037;-79
2022/01/06 07:12:01;;;;;;;;;2.00;1.50;;;;;14.49;51.57;97491.97;6319282;22;102118;-79
2022/01/06 07:14:28;;;;;;;;;3.50;2.50;;;;;14.49;51.54;97489.25;6311925;22;104293;-80
2022/01/06 07:16:55;;;;;;;;;1.00;1.00;;;;;14.52;51.55;97503.16;6323370;22;102255;-80
2022/01/06 07:19:22;;;;;;;;;0.50;0.50;;;;;14.52;51.41;97502.34;6320111;22;102952;-80
2022/01/06 07:21:49;;;;;;;;;1.00;1.00;;;;;14.52;51.28;97513.22;6321431;22;102152;-80
2022/01/06 07:24:18;;;;;;;;;1.00;1.00;;;;;14.50;51.32;97520.81;6319891;22;104053;-80
2022/01/06 07:26:45;;;;;;;;;2.00;2.00;;;;;14.50;51.40;97518.09;6320392;22;102153;-80
2022/01/06 07:29:12;;;;;;;;;1.00;1.00;;;;;14.48;50.88;97518.34;6320226;22;102136;-80
2022/01/06 07:31:39;;;;;;;;;1.00;1.00;;;;;14.47;50.79;97516.69;6319807;22;102541;-80
2022/01/06 07:34:07;;;;;;;;;1.00;1.00;;;;;14.44;51.16;97510.94;6320008;22;104103;-80
2022/01/06 07:36:34;;;;;;;;;0.75;0.75;;;;;14.42;51.08;97513.91;6315447;22;101954;-80
2022/01/06 07:39:01;;;;;;;;;1.50;1.00;;;;;14.38;51.59;97520.94;6319222;22;102290;-80
2022/01/06 07:41:28;;;;;;;;;0.00;0.00;;;;;14.40;51.30;97515.25;6322343;22;102153;-80
2022/01/06 07:43:55;;;;;;;;;1.00;1.00;;;;;14.38;50.92;97511.94;6321184;22;104103;-80
2022/01/06 07:46:22;;;;;;;;;1.00;1.00;;;;;14.37;51.29;97516.56;6321585;22;103073;-80
2022/01/06 07:48:56;;;;;;;;;1.00;1.00;;;;;14.37;51.02;97521.16;6321397;22;101996;-80
2022/01/06 07:51:24;;;;;;;;;1.00;0.75;;;;;14.39;51.15;97524.47;6315627;22;102437;-81
2022/01/06 07:53:52;;;;;;;;;1.00;1.00;;;;;14.39;50.79;97513.59;6314766;22;104372;-80
2022/01/06 07:56:20;;;;;;;;;2.00;1.00;;;;;14.38;50.94;97517.38;6293543;22;102384;-80
2022/01/06 07:58:47;;;;;;;;;1.00;1.00;;;;;14.38;51.22;97523.66;6319265;22;102846;-80
2022/01/06 08:01:15;;;;;;;;;3.00;1.00;;;;;14.38;50.72;97523.66;6292968;22;101960;-80
2022/01/06 08:03:42;;;;;;;;;2.00;1.00;;;;;14.38;50.81;97526.38;6322236;22;104277;-80
2022/01/06 08:06:10;;;;;;;;;2.00;1.00;;;;;14.40;51.02;97531.56;6317104;22;102631;-80
2022/01/06 08:08:37;;;;;;;;;1.00;1.00;;;;;14.38;51.32;97528.25;6295229;22;102073;-80
2022/01/06 08:11:04;;;;;;;;;1.00;1.00;;;;;14.37;50.77;97532.03;6323017;22;102550;-80
2022/01/06 08:13:31;;;;;;;;;0.00;0.00;;;;;14.37;51.03;97526.59;6322489;22;103784;-80
2022/01/06 08:15:58;;;;;;;;;3.75;1.75;;;;;14.36;51.22;97535.88;6290242;22;102248;-80
2022/01/06 08:18:25;;;;;;;;;1.00;1.00;;;;;14.36;51.47;97539.41;6322322;22;102076;-80
2022/01/06 08:20:52;;;;;;;;;1.00;1.00;;;;;14.34;51.31;97533.34;6321853;22;102105;-79
2022/01/06 08:23:19;;;;;;;;;2.00;1.00;;;;;14.34;51.10;97544.22;6321002;22;104094;-79
2022/01/06 08:25:46;;;;;;;;;1.00;1.00;;;;;14.35;50.68;97545.88;6315003;22;102303;-79
2022/01/06 08:28:14;;;;;;;;;1.75;1.00;;;;;14.35;50.58;97547.78;6323161;22;102462;-79
2022/01/06 08:30:41;;;;;;;;;1.00;1.00;;;;;14.36;50.93;97565.78;6320734;22;102423;-79
2022/01/06 08:33:08;;;;;;;;;1.00;1.00;;;;;14.36;51.13;97565.78;6323124;22;104056;-79
2022/01/06 08:35:35;;;;;;;;;1.00;1.00;;;;;14.36;51.23;97569.31;6319416;22;102180;-79
2022/01/06 08:38:02;;;;;;;;;2.00;2.00;;;;;14.38;51.25;97564.44;6318647;22;102153;-79
2022/01/06 08:40:30;;;;;;;;;1.00;1.00;;;;;14.36;50.71;97565.78;6320608;22;102050;-79
2022/01/06 08:42:56;;;;;;;;;1.00;1.00;;;;;14.35;50.63;97573.06;6322760;22;103969;-79
2022/01/06 08:45:23;;;;;;;;;1.75;0.50;;;;;14.36;51.07;97585.63;6316978;22;102182;-79
2022/01/06 08:47:51;;;;;;;;;1.00;1.00;;;;;14.35;50.67;97580.41;6320840;22;102554;-79
2022/01/06 08:50:18;;;;;;;;;1.50;1.00;;;;;14.35;50.91;97583.13;6320159;22;102324;-79
2022/01/06 08:52:46;;;;;;;;;1.00;1.00;;;;;14.32;50.89;97579.81;6318970;22;104025;-79
2022/01/06 08:55:13;;;;;;;;;1.00;1.00;;;;;14.32;51.20;97579.81;6321946;22;102734;-79
2022/01/06 08:57:40;;;;;;;;;2.00;1.00;;;;;14.32;50.64;97572.75;6314507;22;102165;-79
2022/01/06 09:00:09;;;;;;;;;1.50;0.25;;;;;14.34;50.88;97584.19;6319803;22;102403;-80
2022/01/06 09:02:36;;;;;;;;;1.75;1.00;;;;;14.32;50.88;97601.56;6320747;22;104013;-77
2022/01/06 09:05:06;;;;;;;;;1.00;1.00;;;;;14.31;51.02;97593.69;6315434;22;102357;-76
2022/01/06 09:07:33;;;;;;;;;2.00;1.00;;;;;14.32;50.92;97590.69;6320213;22;104002;-78
2022/01/06 09:10:01;;;;;;;;;2.00;2.00;;;;;14.32;50.75;97607.00;6293293;22;102211;-76
2022/01/06 09:12:28;;;;;;;;;1.25;1.00;;;;;14.32;50.54;97605.38;6317142;22;103982;-79
2022/01/06 09:14:55;;;;;;;;;1.00;1.00;;;;;14.34;50.69;97614.09;6292641;22;102910;-77
2022/01/06 09:17:22;;;;;;;;;0.75;0.75;;;;;14.35;50.63;97613.03;6313764;22;102844;-77
2022/01/06 09:19:49;;;;;;;;;1.00;1.00;;;;;14.35;50.56;97616.59;6313082;22;102976;-79
2022/01/06 09:22:16;;;;;;;;;1.00;1.00;;;;;14.34;50.26;97605.94;6318375;22;104098;-78
2022/01/06 09:24:43;;;;;;;;;1.00;1.00;;;;;14.36;50.84;97610.13;6323398;22;102277;-79
2022/01/06 09:27:10;;;;;;;;;1.00;1.00;;;;;14.34;50.56;97617.66;6317161;22;102397;-78
2022/01/06 09:29:37;;;;;;;;;2.00;1.25;;;;;14.35;50.47;97626.63;6314058;22;102267;-78
2022/01/06 09:32:05;;;;;;;;;1.00;1.00;;;;;14.36;50.21;97623.72;6316606;22;103947;-79
2022/01/06 09:34:32;;;;;;;;;1.00;1.00;;;;;14.35;50.33;97615.75;6320755;22;102178;-79
2022/01/06 09:36:59;;;;;;;;;1.00;1.00;;;;;14.35;50.18;97622.03;6319346;22;102241;-79
2022/01/06 09:39:26;;;;;;;;;1.00;1.00;;;;;14.37;50.77;97614.47;6324285;22;102788;-78
2022/01/06 09:41:53;;;;;;;;;1.00;1.00;;;;;14.45;52.51;97615.94;6308889;22;103982;-79
2022/01/06 09:44:20;;;;;;;;;2.00;1.25;;;;;14.54;53.64;97628.06;6323161;22;102302;-79
2022/01/06 09:46:58;;;;;;;;;2.50;2.00;;;;;14.61;53.61;97625.97;6289612;22;102556;-79
2022/01/06 09:49:25;;;;;;;;;1.25;1.00;;;;;14.64;52.45;97620.00;6317895;22;102112;-79
2022/01/06 09:51:52;;;;;;;;;3.00;2.00;;;;;14.68;52.62;97621.16;6292330;22;104046;-79
2022/01/06 09:54:19;;;;;;;;;1.75;1.75;;;;;14.69;52.31;97626.34;6320470;22;101965;-79
2022/01/06 09:56:46;;;;;;;;;3.00;2.75;;;;;14.70;52.56;97628.00;6322125;22;102839;-79
2022/01/06 09:59:13;;;;;;;;;3.00;3.00;;;;;14.72;52.13;97630.50;6315886;22;102462;-79
2022/01/06 10:01:42;;;;;;;;;3.75;3.00;;;;;14.71;52.05;97629.66;6281927;22;104050;-79
2022/01/06 10:04:30;;;;;;;;;2.00;2.00;;;;;14.74;51.70;97631.03;6311666;22;102270;-79
2022/01/06 10:07:01;;;;;;;;;4.00;3.00;;;;;14.74;52.13;97641.94;6278595;22;102407;-79
2022/01/06 10:09:31;;;;;;;;;1.75;1.00;;;;;14.74;52.25;97666.41;6315815;22;102195;-79
2022/01/06 10:11:58;;;;;;;;;2.00;2.00;;;;;14.75;52.44;97670.81;6305057;22;108641;-79
2022/01/06 10:14:38;;;;;;;;;3.00;2.00;;;;;14.75;52.29;97670.81;6300623;22;102508;-79
2022/01/06 10:17:06;;;;;;;;;3.00;1.25;;;;;14.77;52.20;97673.28;6254411;22;101962;-79
2022/01/06 10:19:40;;;;;;;;;2.00;2.00;;;;;14.77;51.92;97678.72;6305030;22;102061;-79
2022/01/06 10:22:15;;;;;;;;;3.75;3.00;;;;;14.78;51.88;97677.63;6288590;22;108908;-79
2022/01/06 10:24:44;;;;;;;;;3.00;2.00;;;;;14.77;51.57;97674.06;6316522;22;102158;-79
2022/01/06 10:27:13;;;;;;;;;2.25;2.25;;;;;14.78;51.71;97670.28;5943515;22;102765;-78
2022/01/06 10:29:47;;;;;;;;;3.00;3.00;;;;;14.78;52.08;97680.34;6295541;22;102210;-79
2022/01/06 10:32:19;;;;;;;;;4.75;4.75;;;;;14.84;52.34;97684.78;6282841;22;104089;-80
2022/01/06 10:34:48;;;;;;;;;4.00;3.00;;;;;14.89;53.12;97688.44;6273067;22;102134;-80
2022/01/06 10:37:16;;;;;;;;;4.75;4.00;;;;;14.95;53.45;97703.72;6307336;22;102202;-80
2022/01/06 10:39:44;;;;;;;;;5.00;5.00;;;;;15.01;53.38;97696.47;6311575;22;102481;-81
2022/01/06 10:42:11;;;;;;;;;6.00;6.00;;;;;15.05;53.38;97693.00;6274561;22;104139;-79
2022/01/06 10:44:52;;;;;;;;;6.00;5.50;;;;;15.11;53.18;97691.16;6289906;22;102070;-81
2022/01/06 10:47:52;;;;;;;;;6.00;5.50;;;;;15.17;53.29;97690.16;6283328;22;102156;-80
2022/01/06 10:50:29;;;;;;;;;9.00;7.25;;;;;15.23;53.33;97697.31;6206592;22;102689;-80
2022/01/06 10:53:04;;;;;;;;;8.25;7.00;;;;;15.30;52.89;97694.41;6274479;22;110122;-80
2022/01/06 10:55:36;;;;;;;;;11.00;9.00;;;;;15.35;52.66;97703.47;6308994;22;102121;-80
2022/01/06 10:58:05;;;;;;;;;9.50;7.75;;;;;15.41;52.87;97709.78;6298760;22;102125;-80
2022/01/06 11:00:34;;;;;;;;;7.25;6.75;;;;;15.44;52.64;97701.97;6283626;22;102539;-79
2022/01/06 11:03:19;;;;;;;;;9.00;9.00;;;;;15.48;53.01;97713.16;6298695;22;103548;-80
2022/01/06 11:05:55;;;;;;;;;9.00;9.00;;;;;15.54;52.35;97712.16;6308683;22;102255;-80
2022/01/06 11:08:27;;;;;;;;;6.50;6.50;;;;;15.58;52.62;97716.03;6303747;22;102093;-79
2022/01/06 11:11:30;;;;;;;;;9.50;6.75;;;;;15.60;52.38;97716.59;6300957;22;102630;-80
2022/01/06 11:13:46;;;;;;;;;8.75;6.00;;;;;15.65;52.80;97722.13;6310811;22;103940;-79
2022/01/06 11:16:15;;;;;;;;;9.50;7.75;;;;;15.71;52.47;97731.19;6271722;22;102442;-79
2022/01/06 11:18:48;;;;;;;;;6.00;6.00;;;;;15.72;52.72;97725.44;6268373;22;102400;-79
2022/01/06 11:21:16;;;;;;;;;8.25;7.00;;;;;15.75;52.80;97724.97;6270889;22;102503;-79
2022/01/06 11:23:44;;;;;;;;;7.50;6.00;;;;;15.80;51.67;97719.56;6299393;22;103724;-79
2022/01/06 11:26:17;;;;;;;;;6.25;5.50;;;;;15.83;52.33;97732.69;6271799;22;102138;-79
2022/01/06 11:28:53;;;;;;;;;6.00;5.75;;;;;15.87;52.06;97738.44;6305124;22;102272;-79
2022/01/06 11:31:21;;;;;;;;;9.00;6.75;;;;;15.88;51.45;97749.09;6280017;22;102098;-79
2022/01/06 11:33:52;;;;;;;;;6.00;6.00;;;;;15.90;51.87;97760.56;6262611;22;108942;-79
2022/01/06 11:36:31;;;;;;;;;5.25;5.25;;;;;15.92;51.67;97752.13;6302721;22;102252;-80
2022/01/06 11:38:59;;;;;;;;;5.50;5.00;;;;;15.96;51.35;97759.53;6300851;22;102133;-78